sensor_id;sensor_type;location;lat;lon;timestamp;pressure;altitude;pressure_sealevel;temperature;humidity
62697;BME280;48761;42.680;23.312;2022-08-19T00:01:21;94622.72;;;22.68;55.42
62697;BME280;48761;42.680;23.312;2022-08-19T00:03:47;94623.66;;;22.76;55.57
62697;BME280;48761;42.680;23.312;2022-08-19T00:06:14;94627.41;;;22.75;55.84
62697;BME280;48761;42.680;23.312;2022-08-19T00:08:40;94619.03;;;22.69;55.89
62697;BME280;48761;42.680;23.312;2022-08-19T00:11:06;94617.59;;;22.73;55.71
62697;BME280;48761;42.680;23.312;2022-08-19T00:13:32;94623.78;;;22.82;55.79
62697;BME280;48761;42.680;23.312;2022-08-19T00:15:58;94621.53;;;22.71;55.90
62697;BME280;48761;42.680;23.312;2022-08-19T00:18:24;94626.38;;;22.60;56.76
62697;BME280;48761;42.680;23.312;2022-08-19T00:20:50;94626.84;;;22.64;56.61
62697;BME280;48761;42.680;23.312;2022-08-19T00:23:16;94633.28;;;22.78;56.49
62697;BME280;48761;42.680;23.312;2022-08-19T00:25:42;94637.22;;;22.76;57.01
62697;BME280;48761;42.680;23.312;2022-08-19T00:28:08;94637.47;;;22.81;56.81
62697;BME280;48761;42.680;23.312;2022-08-19T00:30:34;94636.56;;;22.73;57.26
62697;BME280;48761;42.680;23.312;2022-08-19T00:33:00;94633.75;;;22.82;56.80
62697;BME280;48761;42.680;23.312;2022-08-19T00:35:26;94627.59;;;22.73;57.15
62697;BME280;48761;42.680;23.312;2022-08-19T00:37:52;94634.91;;;22.72;57.20
62697;BME280;48761;42.680;23.312;2022-08-19T00:40:18;94628.97;;;22.69;57.23
62697;BME280;48761;42.680;23.312;2022-08-19T00:42:44;94627.69;;;22.65;57.31
62697;BME280;48761;42.680;23.312;2022-08-19T00:45:17;94623.69;;;22.45;57.75
62697;BME280;48761;42.680;23.312;2022-08-19T00:47:44;94625.56;;;22.60;57.77
62697;BME280;48761;42.680;23.312;2022-08-19T00:50:13;94621.09;;;22.37;58.34
62697;BME280;48761;42.680;23.312;2022-08-19T00:52:43;94625.38;;;22.46;58.30
62697;BME280;48761;42.680;23.312;2022-08-19T00:55:18;94618.75;;;22.49;58.27
62697;BME280;48761;42.680;23.312;2022-08-19T00:57:51;94623.69;;;22.45;58.38
62697;BME280;48761;42.680;23.312;2022-08-19T01:00:19;94624.44;;;22.39;58.70
62697;BME280;48761;42.680;23.312;2022-08-19T01:02:46;94626.50;;;22.37;58.68
62697;BME280;48761;42.680;23.312;2022-08-19T01:05:21;94623.88;;;22.28;59.27
62697;BME280;48761;42.680;23.312;2022-08-19T01:07:49;94624.38;;;22.32;59.03
62697;BME280;48761;42.680;23.312;2022-08-19T01:10:18;94625.00;;;22.19;58.95
62697;BME280;48761;42.680;23.312;2022-08-19T01:12:46;94615.28;;;22.10;59.16
62697;BME280;48761;42.680;23.312;2022-08-19T01:15:16;94622.59;;;21.86;58.96
62697;BME280;48761;42.680;23.312;2022-08-19T01:17:42;94625.31;;;21.86;58.91
62697;BME280;48761;42.680;23.312;2022-08-19T01:20:14;94623.53;;;21.78;58.03
62697;BME280;48761;42.680;23.312;2022-08-19T01:22:47;94615.75;;;21.59;57.92
62697;BME280;48761;42.680;23.312;2022-08-19T01:25:17;94617.69;;;21.50;57.98
62697;BME280;48761;42.680;23.312;2022-08-19T01:27:47;94620.34;;;21.35;58.63
62697;BME280;48761;42.680;23.312;2022-08-19T01:30:17;94616.69;;;21.28;58.12
62697;BME280;48761;42.680;23.312;2022-08-19T01:32:43;94621.19;;;21.12;58.45
62697;BME280;48761;42.680;23.312;2022-08-19T01:35:11;94624.28;;;21.01;58.95
62697;BME280;48761;42.680;23.312;2022-08-19T01:37:49;94627.38;;;20.89;58.53
62697;BME280;48761;42.680;23.312;2022-08-19T01:40:17;94624.63;;;20.98;58.60
62697;BME280;48761;42.680;23.312;2022-08-19T01:42:43;94620.56;;;21.02;59.05
62697;BME280;48761;42.680;23.312;2022-08-19T01:45:09;94621.94;;;20.98;58.50
62697;BME280;48761;42.680;23.312;2022-08-19T01:47:36;94620.88;;;20.99;58.83
62697;BME280;48761;42.680;23.312;2022-08-19T01:50:04;94609.63;;;20.95;59.15
62697;BME280;48761;42.680;23.312;2022-08-19T01:52:30;94621.84;;;21.14;58.85
62697;BME280;48761;42.680;23.312;2022-08-19T01:54:56;94625.50;;;21.22;58.66
62697;BME280;48761;42.680;23.312;2022-08-19T01:57:22;94621.06;;;21.29;58.79
62697;BME280;48761;42.680;23.312;2022-08-19T01:59:48;94621.28;;;21.43;58.92
62697;BME280;48761;42.680;23.312;2022-08-19T02:02:14;94631.25;;;21.42;58.94
62697;BME280;48761;42.680;23.312;2022-08-19T02:04:40;94628.25;;;21.37;59.56
62697;BME280;48761;42.680;23.312;2022-08-19T02:07:07;94631.75;;;21.46;59.43
62697;BME280;48761;42.680;23.312;2022-08-19T02:09:33;94630.41;;;21.42;60.03
62697;BME280;48761;42.680;23.312;2022-08-19T02:11:59;94624.66;;;21.45;60.08
62697;BME280;48761;42.680;23.312;2022-08-19T02:14:25;94621.28;;;21.43;60.29
62697;BME280;48761;42.680;23.312;2022-08-19T02:16:51;94631.09;;;21.44;60.71
62697;BME280;48761;42.680;23.312;2022-08-19T02:19:17;94621.66;;;21.39;61.04
62697;BME280;48761;42.680;23.312;2022-08-19T02:21:43;94620.09;;;21.45;60.74
62697;BME280;48761;42.680;23.312;2022-08-19T02:24:10;94623.44;;;21.47;61.02
62697;BME280;48761;42.680;23.312;2022-08-19T02:26:36;94629.22;;;21.44;60.81
62697;BME280;48761;42.680;23.312;2022-08-19T02:29:02;94628.44;;;21.35;61.39
62697;BME280;48761;42.680;23.312;2022-08-19T02:31:28;94627.78;;;21.33;61.35
62697;BME280;48761;42.680;23.312;2022-08-19T02:33:55;94622.75;;;21.30;61.48
62697;BME280;48761;42.680;23.312;2022-08-19T02:36:21;94623.22;;;21.34;61.24
62697;BME280;48761;42.680;23.312;2022-08-19T02:38:47;94618.94;;;21.39;61.53
62697;BME280;48761;42.680;23.312;2022-08-19T02:41:17;94624.78;;;21.28;62.01
62697;BME280;48761;42.680;23.312;2022-08-19T02:43:43;94622.75;;;21.30;61.90
62697;BME280;48761;42.680;23.312;2022-08-19T02:46:20;94627.78;;;21.33;62.03
62697;BME280;48761;42.680;23.312;2022-08-19T02:48:52;94626.53;;;21.21;62.46
62697;BME280;48761;42.680;23.312;2022-08-19T02:51:22;94629.25;;;21.21;62.76
62697;BME280;48761;42.680;23.312;2022-08-19T02:53:48;94630.00;;;21.06;63.26
62697;BME280;48761;42.680;23.312;2022-08-19T02:56:14;94644.88;;;20.93;61.88
62697;BME280;48761;42.680;23.312;2022-08-19T02:58:41;94643.66;;;20.72;61.96
62697;BME280;48761;42.680;23.312;2022-08-19T03:01:07;94628.59;;;20.46;63.70
62697;BME280;48761;42.680;23.312;2022-08-19T03:03:33;94633.97;;;20.55;63.08
62697;BME280;48761;42.680;23.312;2022-08-19T03:06:14;94643.31;;;20.35;63.62
62697;BME280;48761;42.680;23.312;2022-08-19T03:08:42;94641.47;;;20.27;64.28
62697;BME280;48761;42.680;23.312;2022-08-19T03:11:18;94642.88;;;20.07;64.21
62697;BME280;48761;42.680;23.312;2022-08-19T03:13:45;94634.94;;;20.22;64.31
62697;BME280;48761;42.680;23.312;2022-08-19T03:16:12;94637.13;;;20.10;64.78
62697;BME280;48761;42.680;23.312;2022-08-19T03:18:38;94630.75;;;19.94;64.44
62697;BME280;48761;42.680;23.312;2022-08-19T03:21:04;94638.47;;;20.05;64.57
62697;BME280;48761;42.680;23.312;2022-08-19T03:23:30;94631.91;;;20.16;64.20
62697;BME280;48761;42.680;23.312;2022-08-19T03:25:56;94625.47;;;20.18;64.36
62697;BME280;48761;42.680;23.312;2022-08-19T03:28:22;94628.03;;;20.19;64.59
62697;BME280;48761;42.680;23.312;2022-08-19T03:31:06;94637.09;;;20.26;64.37
62697;BME280;48761;42.680;23.312;2022-08-19T03:33:34;94632.66;;;20.42;64.28
62697;BME280;48761;42.680;23.312;2022-08-19T03:36:05;94640.25;;;20.47;63.86
62697;BME280;48761;42.680;23.312;2022-08-19T03:38:33;94638.00;;;20.50;63.93
62697;BME280;48761;42.680;23.312;2022-08-19T03:41:03;94645.91;;;20.60;64.07
62697;BME280;48761;42.680;23.312;2022-08-19T03:43:29;94645.03;;;20.68;63.47
62697;BME280;48761;42.680;23.312;2022-08-19T03:46:11;94645.66;;;20.79;63.10
62697;BME280;48761;42.680;23.312;2022-08-19T03:48:39;94657.75;;;20.91;62.62
62697;BME280;48761;42.680;23.312;2022-08-19T03:51:07;94657.88;;;20.98;62.20
62697;BME280;48761;42.680;23.312;2022-08-19T03:53:34;94661.06;;;21.10;62.14
62697;BME280;48761;42.680;23.312;2022-08-19T03:56:01;94655.22;;;21.22;62.39
62697;BME280;48761;42.680;23.312;2022-08-19T03:58:28;94661.97;;;21.26;62.48
62697;BME280;48761;42.680;23.312;2022-08-19T04:00:58;94665.78;;;21.32;62.17
62697;BME280;48761;42.680;23.312;2022-08-19T04:03:24;94667.19;;;21.51;61.79
62697;BME280;48761;42.680;23.312;2022-08-19T04:05:50;94671.75;;;21.50;61.56
62697;BME280;48761;42.680;23.312;2022-08-19T04:08:16;94674.88;;;21.63;61.33
62697;BME280;48761;42.680;23.312;2022-08-19T04:10:42;94674.72;;;21.79;61.08
62697;BME280;48761;42.680;23.312;2022-08-19T04:13:08;94673.44;;;22.14;60.03
62697;BME280;48761;42.680;23.312;2022-08-19T04:15:39;94670.41;;;22.78;58.03
62697;BME280;48761;42.680;23.312;2022-08-19T04:18:05;94676.03;;;23.50;55.90
62697;BME280;48761;42.680;23.312;2022-08-19T04:20:31;94671.00;;;24.27;53.70
62697;BME280;48761;42.680;23.312;2022-08-19T04:22:57;94681.38;;;24.88;52.37
62697;BME280;48761;42.680;23.312;2022-08-19T04:25:23;94678.94;;;25.56;50.11
62697;BME280;48761;42.680;23.312;2022-08-19T04:27:49;94678.38;;;26.01;49.10
62697;BME280;48761;42.680;23.312;2022-08-19T04:30:15;94676.22;;;26.37;48.29
62697;BME280;48761;42.680;23.312;2022-08-19T04:32:41;94680.59;;;26.72;47.22
62697;BME280;48761;42.680;23.312;2022-08-19T04:35:07;94687.19;;;27.57;45.61
62697;BME280;48761;42.680;23.312;2022-08-19T04:37:33;94679.13;;;27.69;44.57
62697;BME280;48761;42.680;23.312;2022-08-19T04:39:59;94681.75;;;28.15;43.67
62697;BME280;48761;42.680;23.312;2022-08-19T04:42:25;94675.75;;;29.14;42.16
62697;BME280;48761;42.680;23.312;2022-08-19T04:44:51;94685.81;;;29.82;39.50
62697;BME280;48761;42.680;23.312;2022-08-19T04:47:17;94675.13;;;29.61;39.50
62697;BME280;48761;42.680;23.312;2022-08-19T04:49:42;94674.69;;;29.46;40.16
62697;BME280;48761;42.680;23.312;2022-08-19T04:52:08;94671.34;;;30.17;38.64
62697;BME280;48761;42.680;23.312;2022-08-19T04:54:34;94687.25;;;30.63;37.47
62697;BME280;48761;42.680;23.312;2022-08-19T04:57:00;94679.25;;;30.62;37.69
62697;BME280;48761;42.680;23.312;2022-08-19T04:59:26;94678.41;;;30.97;36.71
62697;BME280;48761;42.680;23.312;2022-08-19T05:01:52;94686.19;;;31.71;35.22
62697;BME280;48761;42.680;23.312;2022-08-19T05:04:19;94687.19;;;31.65;35.52
62697;BME280;48761;42.680;23.312;2022-08-19T05:06:47;94689.53;;;31.91;34.42
62697;BME280;48761;42.680;23.312;2022-08-19T05:09:14;94683.69;;;31.28;35.70
62697;BME280;48761;42.680;23.312;2022-08-19T05:11:41;94689.81;;;31.60;35.19
62697;BME280;48761;42.680;23.312;2022-08-19T05:14:07;94687.84;;;31.31;35.49
62697;BME280;48761;42.680;23.312;2022-08-19T05:16:34;94690.50;;;32.14;34.91
62697;BME280;48761;42.680;23.312;2022-08-19T05:19:00;94684.91;;;32.77;33.56
62697;BME280;48761;42.680;23.312;2022-08-19T05:21:26;94693.19;;;32.43;34.14
62697;BME280;48761;42.680;23.312;2022-08-19T05:23:52;94690.59;;;32.71;33.56
62697;BME280;48761;42.680;23.312;2022-08-19T05:26:18;94694.63;;;33.25;32.70
62697;BME280;48761;42.680;23.312;2022-08-19T05:28:44;94687.44;;;33.97;31.80
62697;BME280;48761;42.680;23.312;2022-08-19T05:31:10;94693.56;;;34.04;31.75
62697;BME280;48761;42.680;23.312;2022-08-19T05:33:36;94697.38;;;35.66;29.45
62697;BME280;48761;42.680;23.312;2022-08-19T05:36:02;94691.31;;;35.70;28.88
62697;BME280;48761;42.680;23.312;2022-08-19T05:38:28;94689.72;;;36.21;28.56
62697;BME280;48761;42.680;23.312;2022-08-19T05:40:54;94698.03;;;36.16;28.60
62697;BME280;48761;42.680;23.312;2022-08-19T05:43:20;94694.44;;;36.88;27.21
62697;BME280;48761;42.680;23.312;2022-08-19T05:45:46;94695.16;;;37.26;26.98
62697;BME280;48761;42.680;23.312;2022-08-19T05:48:13;94703.00;;;37.03;26.74
62697;BME280;48761;42.680;23.312;2022-08-19T05:50:40;94697.22;;;36.78;27.09
62697;BME280;48761;42.680;23.312;2022-08-19T05:53:07;94699.13;;;36.88;26.75
62697;BME280;48761;42.680;23.312;2022-08-19T05:55:34;94696.28;;;37.14;26.47
62697;BME280;48761;42.680;23.312;2022-08-19T05:58:00;94694.69;;;36.76;26.45
62697;BME280;48761;42.680;23.312;2022-08-19T06:00:26;94695.81;;;36.81;26.65
62697;BME280;48761;42.680;23.312;2022-08-19T06:02:52;94700.66;;;37.36;26.32
62697;BME280;48761;42.680;23.312;2022-08-19T06:05:18;94694.19;;;38.12;25.38
62697;BME280;48761;42.680;23.312;2022-08-19T06:07:44;94699.78;;;38.48;24.91
62697;BME280;48761;42.680;23.312;2022-08-19T06:10:11;94699.31;;;39.24;24.28
62697;BME280;48761;42.680;23.312;2022-08-19T06:12:37;94696.31;;;39.89;23.32
62697;BME280;48761;42.680;23.312;2022-08-19T06:15:06;94704.50;;;39.81;23.19
62697;BME280;48761;42.680;23.312;2022-08-19T06:17:32;94689.28;;;39.73;23.26
62697;BME280;48761;42.680;23.312;2022-08-19T06:19:58;94705.63;;;39.99;22.73
62697;BME280;48761;42.680;23.312;2022-08-19T06:22:24;94701.72;;;39.81;22.66
62697;BME280;48761;42.680;23.312;2022-08-19T06:24:50;94696.16;;;39.81;23.31
62697;BME280;48761;42.680;23.312;2022-08-19T06:27:16;94700.66;;;40.34;22.47
62697;BME280;48761;42.680;23.312;2022-08-19T06:29:42;94700.84;;;40.57;22.27
62697;BME280;48761;42.680;23.312;2022-08-19T06:32:26;94700.94;;;40.52;22.32
62697;BME280;48761;42.680;23.312;2022-08-19T06:35:10;94709.56;;;39.54;23.10
62697;BME280;48761;42.680;23.312;2022-08-19T06:37:56;94706.41;;;39.61;23.29
62697;BME280;48761;42.680;23.312;2022-08-19T06:40:42;94700.91;;;40.72;22.53
62697;BME280;48761;42.680;23.312;2022-08-19T06:43:29;94702.75;;;38.56;23.65
62697;BME280;48761;42.680;23.312;2022-08-19T06:46:16;94704.59;;;39.70;22.88
62697;BME280;48761;42.680;23.312;2022-08-19T06:49:03;94696.25;;;39.26;23.38
62697;BME280;48761;42.680;23.312;2022-08-19T06:51:49;94702.16;;;40.07;22.77
62697;BME280;48761;42.680;23.312;2022-08-19T06:54:36;94699.75;;;39.81;23.14
62697;BME280;48761;42.680;23.312;2022-08-19T06:57:23;94700.22;;;40.27;22.58
62697;BME280;48761;42.680;23.312;2022-08-19T07:00:10;94711.81;;;41.44;21.53
62697;BME280;48761;42.680;23.312;2022-08-19T07:02:56;94716.16;;;41.50;21.44
62697;BME280;48761;42.680;23.312;2022-08-19T07:05:43;94711.06;;;40.62;21.92
62697;BME280;48761;42.680;23.312;2022-08-19T07:08:29;94714.53;;;41.63;21.48
62697;BME280;48761;42.680;23.312;2022-08-19T07:11:17;94708.41;;;42.27;20.38
62697;BME280;48761;42.680;23.312;2022-08-19T07:14:04;94711.94;;;44.54;18.41
62697;BME280;48761;42.680;23.312;2022-08-19T07:16:51;94716.38;;;44.55;18.38
62697;BME280;48761;42.680;23.312;2022-08-19T07:19:38;94719.34;;;44.23;18.73
62697;BME280;48761;42.680;23.312;2022-08-19T07:22:24;94708.84;;;43.53;19.06
62697;BME280;48761;42.680;23.312;2022-08-19T07:25:11;94712.88;;;43.06;20.00
62697;BME280;48761;42.680;23.312;2022-08-19T07:27:57;94705.16;;;42.10;20.49
62697;BME280;48761;42.680;23.312;2022-08-19T07:30:43;94710.00;;;42.42;20.24
62697;BME280;48761;42.680;23.312;2022-08-19T07:33:29;94704.91;;;41.70;20.81
62697;BME280;48761;42.680;23.312;2022-08-19T07:36:26;94701.28;;;41.55;21.46
62697;BME280;48761;42.680;23.312;2022-08-19T07:39:19;94711.22;;;42.27;20.50
62697;BME280;48761;42.680;23.312;2022-08-19T07:42:08;94711.53;;;42.71;20.12
62697;BME280;48761;42.680;23.312;2022-08-19T07:44:55;94699.13;;;42.86;19.92
62697;BME280;48761;42.680;23.312;2022-08-19T07:47:41;94707.03;;;43.57;19.26
62697;BME280;48761;42.680;23.312;2022-08-19T07:50:27;94698.91;;;43.06;19.66
62697;BME280;48761;42.680;23.312;2022-08-19T07:53:13;94711.50;;;43.67;19.53
62697;BME280;48761;42.680;23.312;2022-08-19T07:56:00;94705.03;;;42.85;19.51
62697;BME280;48761;42.680;23.312;2022-08-19T07:58:48;94697.81;;;42.38;20.12
62697;BME280;48761;42.680;23.312;2022-08-19T08:01:35;94703.53;;;44.01;18.38
62697;BME280;48761;42.680;23.312;2022-08-19T08:04:22;94702.88;;;44.49;18.36
62697;BME280;48761;42.680;23.312;2022-08-19T08:07:08;94701.41;;;44.33;18.22
62697;BME280;48761;42.680;23.312;2022-08-19T08:09:54;94702.53;;;44.68;17.87
62697;BME280;48761;42.680;23.312;2022-08-19T08:12:40;94696.59;;;44.78;17.62
62697;BME280;48761;42.680;23.312;2022-08-19T08:15:26;94709.44;;;45.76;17.04
62697;BME280;48761;42.680;23.312;2022-08-19T08:18:13;94700.91;;;45.24;16.94
62697;BME280;48761;42.680;23.312;2022-08-19T08:20:59;94690.81;;;45.32;17.15
62697;BME280;48761;42.680;23.312;2022-08-19T08:23:45;94691.31;;;45.64;16.96
62697;BME280;48761;42.680;23.312;2022-08-19T08:26:31;94693.31;;;45.94;16.48
62697;BME280;48761;42.680;23.312;2022-08-19T08:29:18;94683.66;;;45.74;16.73
62697;BME280;48761;42.680;23.312;2022-08-19T08:32:04;94690.84;;;45.93;16.68
62697;BME280;48761;42.680;23.312;2022-08-19T08:34:52;94682.44;;;45.93;16.37
62697;BME280;48761;42.680;23.312;2022-08-19T08:37:38;94685.66;;;46.25;16.49
62697;BME280;48761;42.680;23.312;2022-08-19T08:43:37;94683.06;;;45.29;16.97
62697;BME280;48761;42.680;23.312;2022-08-19T08:52:30;94668.78;;;43.75;17.92
62697;BME280;48761;42.680;23.312;2022-08-19T08:55:27;94660.72;;;42.14;19.64
62697;BME280;48761;42.680;23.312;2022-08-19T08:58:26;94657.53;;;43.08;18.82
62697;BME280;48761;42.680;23.312;2022-08-19T09:01:14;94657.38;;;43.72;18.40
62697;BME280;48761;42.680;23.312;2022-08-19T09:04:04;94656.78;;;44.10;17.95
62697;BME280;48761;42.680;23.312;2022-08-19T09:16:17;94647.41;;;44.42;16.56
62697;BME280;48761;42.680;23.312;2022-08-19T09:19:05;94641.09;;;44.45;16.50
62697;BME280;48761;42.680;23.312;2022-08-19T09:21:52;94639.66;;;43.85;16.70
62697;BME280;48761;42.680;23.312;2022-08-19T09:24:38;94647.41;;;42.89;17.21
62697;BME280;48761;42.680;23.312;2022-08-19T09:27:26;94630.28;;;42.82;17.68
62697;BME280;48761;42.680;23.312;2022-08-19T09:30:21;94636.16;;;42.25;16.65
62697;BME280;48761;42.680;23.312;2022-08-19T09:33:08;94636.78;;;41.05;17.79
62697;BME280;48761;42.680;23.312;2022-08-19T09:36:06;94629.03;;;41.44;17.20
62697;BME280;48761;42.680;23.312;2022-08-19T09:38:53;94632.38;;;41.18;17.74
62697;BME280;48761;42.680;23.312;2022-08-19T09:41:39;94623.50;;;40.88;17.65
62697;BME280;48761;42.680;23.312;2022-08-19T09:44:25;94622.75;;;40.34;18.05
62697;BME280;48761;42.680;23.312;2022-08-19T09:47:13;94620.53;;;39.15;19.18
62697;BME280;48761;42.680;23.312;2022-08-19T09:49:59;94618.34;;;38.63;19.46
62697;BME280;48761;42.680;23.312;2022-08-19T09:52:46;94616.88;;;38.41;19.26
62697;BME280;48761;42.680;23.312;2022-08-19T09:55:32;94614.38;;;38.69;19.60
62697;BME280;48761;42.680;23.312;2022-08-19T09:58:18;94616.78;;;38.16;19.71
62697;BME280;48761;42.680;23.312;2022-08-19T10:01:05;94611.66;;;37.99;19.74
62697;BME280;48761;42.680;23.312;2022-08-19T10:03:54;94609.16;;;36.85;21.23
62697;BME280;48761;42.680;23.312;2022-08-19T10:06:41;94600.53;;;37.08;21.46
62697;BME280;48761;42.680;23.312;2022-08-19T10:09:27;94600.41;;;37.34;20.90
62697;BME280;48761;42.680;23.312;2022-08-19T10:12:13;94595.50;;;37.15;21.04
62697;BME280;48761;42.680;23.312;2022-08-19T10:15:00;94589.25;;;37.50;21.08
62697;BME280;48761;42.680;23.312;2022-08-19T10:17:53;94592.81;;;36.99;21.76
62697;BME280;48761;42.680;23.312;2022-08-19T10:20:39;94596.75;;;36.77;22.06
62697;BME280;48761;42.680;23.312;2022-08-19T10:23:26;94582.88;;;36.93;21.85
62697;BME280;48761;42.680;23.312;2022-08-19T10:26:18;94589.66;;;36.14;22.59
62697;BME280;48761;42.680;23.312;2022-08-19T10:29:05;94595.00;;;35.19;22.84
62697;BME280;48761;42.680;23.312;2022-08-19T10:31:51;94581.41;;;34.97;24.16
62697;BME280;48761;42.680;23.312;2022-08-19T10:34:37;94574.56;;;35.10;24.17
62697;BME280;48761;42.680;23.312;2022-08-19T10:37:24;94578.94;;;34.95;23.95
62697;BME280;48761;42.680;23.312;2022-08-19T10:40:10;94577.88;;;34.53;24.12
62697;BME280;48761;42.680;23.312;2022-08-19T10:42:56;94569.38;;;34.60;24.52
62697;BME280;48761;42.680;23.312;2022-08-19T10:45:43;94573.38;;;34.90;24.41
62697;BME280;48761;42.680;23.312;2022-08-19T10:48:29;94573.06;;;34.81;23.97
62697;BME280;48761;42.680;23.312;2022-08-19T10:51:16;94569.56;;;35.02;24.12
62697;BME280;48761;42.680;23.312;2022-08-19T10:54:03;94564.81;;;34.86;24.00
62697;BME280;48761;42.680;23.312;2022-08-19T10:56:49;94561.50;;;34.84;23.97
62697;BME280;48761;42.680;23.312;2022-08-19T10:59:36;94563.81;;;35.19;24.47
62697;BME280;48761;42.680;23.312;2022-08-19T11:02:22;94562.50;;;35.48;23.64
62697;BME280;48761;42.680;23.312;2022-08-19T11:05:08;94566.41;;;35.47;23.70
62697;BME280;48761;42.680;23.312;2022-08-19T11:07:54;94562.50;;;35.48;23.96
62697;BME280;48761;42.680;23.312;2022-08-19T11:10:42;94558.13;;;35.52;23.50
62697;BME280;48761;42.680;23.312;2022-08-19T11:13:33;94558.31;;;35.34;23.80
62697;BME280;48761;42.680;23.312;2022-08-19T11:16:21;94549.53;;;35.38;24.46
62697;BME280;48761;42.680;23.312;2022-08-19T11:19:09;94554.19;;;35.27;24.04
62697;BME280;48761;42.680;23.312;2022-08-19T11:21:56;94544.88;;;34.79;24.30
62697;BME280;48761;42.680;23.312;2022-08-19T11:24:43;94550.63;;;34.67;24.55
62697;BME280;48761;42.680;23.312;2022-08-19T11:27:29;94540.28;;;34.36;24.50
62697;BME280;48761;42.680;23.312;2022-08-19T11:30:15;94545.25;;;34.39;24.96
62697;BME280;48761;42.680;23.312;2022-08-19T11:33:01;94538.19;;;34.59;25.35
62697;BME280;48761;42.680;23.312;2022-08-19T11:35:47;94531.38;;;34.83;24.54
62697;BME280;48761;42.680;23.312;2022-08-19T11:38:34;94530.09;;;34.37;25.00
62697;BME280;48761;42.680;23.312;2022-08-19T11:41:22;94526.81;;;34.45;25.53
62697;BME280;48761;42.680;23.312;2022-08-19T11:44:09;94515.88;;;34.66;25.24
62697;BME280;48761;42.680;23.312;2022-08-19T11:46:55;94518.38;;;34.73;24.72
62697;BME280;48761;42.680;23.312;2022-08-19T11:49:41;94522.16;;;34.56;24.90
62697;BME280;48761;42.680;23.312;2022-08-19T11:52:27;94513.94;;;34.13;25.20
62697;BME280;48761;42.680;23.312;2022-08-19T11:55:14;94518.81;;;34.38;25.21
62697;BME280;48761;42.680;23.312;2022-08-19T11:58:00;94524.38;;;34.54;24.98
62697;BME280;48761;42.680;23.312;2022-08-19T12:00:46;94512.28;;;34.60;25.18
62697;BME280;48761;42.680;23.312;2022-08-19T12:03:32;94517.34;;;34.84;24.99
62697;BME280;48761;42.680;23.312;2022-08-19T12:06:23;94507.53;;;34.50;25.39
62697;BME280;48761;42.680;23.312;2022-08-19T12:09:10;94502.34;;;34.16;25.69
62697;BME280;48761;42.680;23.312;2022-08-19T12:11:56;94497.28;;;33.92;26.05
62697;BME280;48761;42.680;23.312;2022-08-19T12:14:42;94496.84;;;33.39;25.89
62697;BME280;48761;42.680;23.312;2022-08-19T12:17:29;94491.44;;;33.50;26.49
62697;BME280;48761;42.680;23.312;2022-08-19T12:20:15;94493.06;;;33.51;26.57
62697;BME280;48761;42.680;23.312;2022-08-19T12:23:01;94485.19;;;33.60;26.68
62697;BME280;48761;42.680;23.312;2022-08-19T12:25:48;94479.53;;;33.77;26.31
62697;BME280;48761;42.680;23.312;2022-08-19T12:28:35;94472.19;;;33.55;26.33
62697;BME280;48761;42.680;23.312;2022-08-19T12:31:21;94479.63;;;33.54;26.22
62697;BME280;48761;42.680;23.312;2022-08-19T12:34:07;94474.03;;;33.77;26.00
62697;BME280;48761;42.680;23.312;2022-08-19T12:36:53;94471.84;;;33.79;26.00
62697;BME280;48761;42.680;23.312;2022-08-19T12:39:41;94462.47;;;33.80;25.79
62697;BME280;48761;42.680;23.312;2022-08-19T12:42:28;94462.53;;;33.91;26.63
62697;BME280;48761;42.680;23.312;2022-08-19T12:45:14;94458.44;;;33.98;25.76
62697;BME280;48761;42.680;23.312;2022-08-19T12:48:00;94456.00;;;34.02;25.67
62697;BME280;48761;42.680;23.312;2022-08-19T12:50:46;94460.75;;;34.12;25.49
62697;BME280;48761;42.680;23.312;2022-08-19T12:53:33;94453.69;;;34.32;25.66
62697;BME280;48761;42.680;23.312;2022-08-19T12:56:19;94459.50;;;34.41;25.48
62697;BME280;48761;42.680;23.312;2022-08-19T12:59:05;94457.41;;;34.69;25.60
62697;BME280;48761;42.680;23.312;2022-08-19T13:01:51;94454.09;;;34.72;25.43
62697;BME280;48761;42.680;23.312;2022-08-19T13:04:37;94451.13;;;34.84;24.89
62697;BME280;48761;42.680;23.312;2022-08-19T13:07:25;94448.63;;;34.83;24.74
62697;BME280;48761;42.680;23.312;2022-08-19T13:10:13;94444.81;;;34.99;24.61
62697;BME280;48761;42.680;23.312;2022-08-19T13:13:04;94443.69;;;34.90;24.25
62697;BME280;48761;42.680;23.312;2022-08-19T13:15:51;94439.19;;;34.68;24.71
62697;BME280;48761;42.680;23.312;2022-08-19T13:18:38;94437.03;;;34.81;24.34
62697;BME280;48761;42.680;23.312;2022-08-19T13:21:26;94444.16;;;34.61;24.63
62697;BME280;48761;42.680;23.312;2022-08-19T13:24:12;94438.31;;;34.52;24.81
62697;BME280;48761;42.680;23.312;2022-08-19T13:27:00;94429.75;;;34.43;24.83
62697;BME280;48761;42.680;23.312;2022-08-19T13:29:46;94429.25;;;34.62;25.19
62697;BME280;48761;42.680;23.312;2022-08-19T13:32:32;94425.41;;;34.68;24.61
62697;BME280;48761;42.680;23.312;2022-08-19T13:35:18;94426.50;;;34.72;24.72
62697;BME280;48761;42.680;23.312;2022-08-19T13:38:05;94429.28;;;34.77;24.67
62697;BME280;48761;42.680;23.312;2022-08-19T13:40:52;94419.34;;;34.76;24.64
62697;BME280;48761;42.680;23.312;2022-08-19T13:43:39;94423.47;;;34.63;24.95
62697;BME280;48761;42.680;23.312;2022-08-19T13:46:25;94418.59;;;34.22;25.57
62697;BME280;48761;42.680;23.312;2022-08-19T13:49:12;94413.66;;;34.29;25.31
62697;BME280;48761;42.680;23.312;2022-08-19T13:51:58;94417.59;;;34.39;26.29
62697;BME280;48761;42.680;23.312;2022-08-19T13:54:44;94410.97;;;34.35;25.33
62697;BME280;48761;42.680;23.312;2022-08-19T13:57:31;94412.63;;;34.36;25.44
62697;BME280;48761;42.680;23.312;2022-08-19T14:00:17;94409.66;;;34.58;25.25